DAAV

Details ICAO DAAV (GJL)
Name JIJEL
Region Algeria
Timezone Africa/Algiers (UTC+1.0)
Plans Departing 2
Arriving 5
Stats Elevation 36 ft / 11 m (AMSL)
Location 36.795135° 5.873607°
Runways 1
Magnetic Variation 1.608° E
Sunrise 2017-12-18 06:45:12 UTC / 2017-12-18 07:45:12 Local
Sunset 2017-12-18 16:23:44 UTC / 2017-12-18 17:23:44 Local
Advertisement - Login to hide

Runways

ID Width Length Bearing (true) Bearing (mag) Surface Threshold Offset Overrun Length
17 148 ft / 45 m 7,904 ft / 2,409 m 171.05° 169.44° Asphalt 0 ft / 0 m 0 ft / 0 m
35 148 ft / 45 m 7,904 ft / 2,409 m 351.05° 349.44° Asphalt 0 ft / 0 m 0 ft / 0 m

Map

Weather


0- 5 10 15 20 25 30 35+ Temperature / ° C

Clouds and Precipitation
Forecast for 2017-12-18 12:00 UTC. Updated 10 minutes ago

Ground ~20,000 ft ~40,000 ft Winds

METAR

DAAV 180700Z 24003KT 9000 SCT016TCU BKN030 10/08 Q1029

TAF

TAF DAAV 180500Z 1806/1906 31014KT 8000 SCT016TCU BKN030 TEMPO 1806/1813 30015G25KT 4000 RA FEW020CB TEMPO 1813/1819 29015G25KT 5000 -RA

Frequencies

Tower 119.70 MHz TWR
Warning: Do not use this data for real-world aviation or navigation. No guarantee of current accuracy is given.